sensor_id;sensor_type;location;lat;lon;timestamp;temperature;humidity
64997;SHT31;51545;51.568;6.998;2023-09-19T00:01:22;16.47;86.72
64997;SHT31;51545;51.568;6.998;2023-09-19T00:03:48;16.49;86.31
64997;SHT31;51545;51.568;6.998;2023-09-19T00:06:13;16.42;86.45
64997;SHT31;51545;51.568;6.998;2023-09-19T00:08:39;16.44;86.23
64997;SHT31;51545;51.568;6.998;2023-09-19T00:11:04;16.39;86.63
64997;SHT31;51545;51.568;6.998;2023-09-19T00:13:30;16.32;86.89
64997;SHT31;51545;51.568;6.998;2023-09-19T00:15:56;16.42;86.40
64997;SHT31;51545;51.568;6.998;2023-09-19T00:18:24;16.39;85.79
64997;SHT31;51545;51.568;6.998;2023-09-19T00:20:57;16.35;85.84
64997;SHT31;51545;51.568;6.998;2023-09-19T00:23:23;16.26;86.09
64997;SHT31;51545;51.568;6.998;2023-09-19T00:25:50;16.30;86.32
64997;SHT31;51545;51.568;6.998;2023-09-19T00:28:16;16.21;86.21
64997;SHT31;51545;51.568;6.998;2023-09-19T00:30:43;16.14;86.29
64997;SHT31;51545;51.568;6.998;2023-09-19T00:33:10;16.19;86.21
64997;SHT31;51545;51.568;6.998;2023-09-19T00:35:46;16.24;85.51
64997;SHT31;51545;51.568;6.998;2023-09-19T00:38:15;16.22;85.92
64997;SHT31;51545;51.568;6.998;2023-09-19T00:40:45;16.12;85.55
64997;SHT31;51545;51.568;6.998;2023-09-19T00:43:11;16.15;85.81
64997;SHT31;51545;51.568;6.998;2023-09-19T00:45:37;16.05;86.07
64997;SHT31;51545;51.568;6.998;2023-09-19T00:48:04;16.14;85.63
64997;SHT31;51545;51.568;6.998;2023-09-19T00:50:34;16.12;86.08
64997;SHT31;51545;51.568;6.998;2023-09-19T00:53:00;16.04;86.32
64997;SHT31;51545;51.568;6.998;2023-09-19T00:55:26;16.05;86.13
64997;SHT31;51545;51.568;6.998;2023-09-19T00:57:55;16.01;86.49
64997;SHT31;51545;51.568;6.998;2023-09-19T01:00:22;16.02;86.17
64997;SHT31;51545;51.568;6.998;2023-09-19T01:02:48;15.98;86.74
64997;SHT31;51545;51.568;6.998;2023-09-19T01:05:14;15.99;86.57
64997;SHT31;51545;51.568;6.998;2023-09-19T01:07:40;16.02;86.45
64997;SHT31;51545;51.568;6.998;2023-09-19T01:10:06;15.88;87.05
64997;SHT31;51545;51.568;6.998;2023-09-19T01:23:21;15.78;87.38
64997;SHT31;51545;51.568;6.998;2023-09-19T01:28:51;15.74;87.73
64997;SHT31;51545;51.568;6.998;2023-09-19T01:31:22;15.63;88.07
64997;SHT31;51545;51.568;6.998;2023-09-19T01:33:53;15.69;87.90
64997;SHT31;51545;51.568;6.998;2023-09-19T01:36:23;15.69;87.66
64997;SHT31;51545;51.568;6.998;2023-09-19T01:38:49;15.56;88.01
64997;SHT31;51545;51.568;6.998;2023-09-19T01:41:17;15.56;88.25
64997;SHT31;51545;51.568;6.998;2023-09-19T01:43:51;15.54;88.08
64997;SHT31;51545;51.568;6.998;2023-09-19T01:46:29;15.50;88.46
64997;SHT31;51545;51.568;6.998;2023-09-19T01:51:36;15.46;88.38
64997;SHT31;51545;51.568;6.998;2023-09-19T01:54:09;15.43;88.51
64997;SHT31;51545;51.568;6.998;2023-09-19T01:56:57;15.42;88.57
64997;SHT31;51545;51.568;6.998;2023-09-19T01:59:31;15.49;87.46
64997;SHT31;51545;51.568;6.998;2023-09-19T02:02:01;15.42;87.85
64997;SHT31;51545;51.568;6.998;2023-09-19T02:04:31;15.39;87.93
64997;SHT31;51545;51.568;6.998;2023-09-19T02:06:59;15.44;87.03
64997;SHT31;51545;51.568;6.998;2023-09-19T02:09:26;15.39;87.44
64997;SHT31;51545;51.568;6.998;2023-09-19T02:11:51;15.32;87.48
64997;SHT31;51545;51.568;6.998;2023-09-19T02:14:17;15.29;87.38
64997;SHT31;51545;51.568;6.998;2023-09-19T02:16:44;15.26;86.99
64997;SHT31;51545;51.568;6.998;2023-09-19T02:19:10;15.28;86.97
64997;SHT31;51545;51.568;6.998;2023-09-19T02:21:36;15.25;86.92
64997;SHT31;51545;51.568;6.998;2023-09-19T02:24:01;15.29;86.49
64997;SHT31;51545;51.568;6.998;2023-09-19T02:26:28;15.16;86.31
64997;SHT31;51545;51.568;6.998;2023-09-19T02:28:53;15.16;86.54
64997;SHT31;51545;51.568;6.998;2023-09-19T02:31:19;15.19;85.86
64997;SHT31;51545;51.568;6.998;2023-09-19T02:33:44;15.20;85.70
64997;SHT31;51545;51.568;6.998;2023-09-19T02:36:11;15.16;85.71
64997;SHT31;51545;51.568;6.998;2023-09-19T02:38:36;15.18;85.49
64997;SHT31;51545;51.568;6.998;2023-09-19T02:41:02;15.16;85.43
64997;SHT31;51545;51.568;6.998;2023-09-19T02:43:28;15.22;85.39
64997;SHT31;51545;51.568;6.998;2023-09-19T02:45:53;15.19;85.06
64997;SHT31;51545;51.568;6.998;2023-09-19T02:48:19;15.12;85.60
64997;SHT31;51545;51.568;6.998;2023-09-19T02:50:45;15.14;85.52
64997;SHT31;51545;51.568;6.998;2023-09-19T02:53:11;15.15;85.26
64997;SHT31;51545;51.568;6.998;2023-09-19T02:55:38;15.11;85.72
64997;SHT31;51545;51.568;6.998;2023-09-19T02:58:05;15.54;85.13
64997;SHT31;51545;51.568;6.998;2023-09-19T03:00:36;15.47;84.79
64997;SHT31;51545;51.568;6.998;2023-09-19T03:03:02;15.53;84.60
64997;SHT31;51545;51.568;6.998;2023-09-19T03:05:28;15.19;84.57
64997;SHT31;51545;51.568;6.998;2023-09-19T03:07:56;15.09;85.16
64997;SHT31;51545;51.568;6.998;2023-09-19T03:10:22;15.06;85.12
64997;SHT31;51545;51.568;6.998;2023-09-19T03:12:48;15.02;85.19
64997;SHT31;51545;51.568;6.998;2023-09-19T03:15:15;15.01;85.33
64997;SHT31;51545;51.568;6.998;2023-09-19T03:17:43;15.01;85.42
64997;SHT31;51545;51.568;6.998;2023-09-19T03:20:15;14.94;85.50
64997;SHT31;51545;51.568;6.998;2023-09-19T03:22:44;14.92;85.50
64997;SHT31;51545;51.568;6.998;2023-09-19T03:25:10;14.91;85.29
64997;SHT31;51545;51.568;6.998;2023-09-19T03:27:37;14.89;84.85
64997;SHT31;51545;51.568;6.998;2023-09-19T03:30:03;14.98;84.42
64997;SHT31;51545;51.568;6.998;2023-09-19T03:32:34;14.92;84.38
64997;SHT31;51545;51.568;6.998;2023-09-19T03:35:01;14.87;84.44
64997;SHT31;51545;51.568;6.998;2023-09-19T03:37:26;14.85;84.71
64997;SHT31;51545;51.568;6.998;2023-09-19T03:39:52;14.81;84.60
64997;SHT31;51545;51.568;6.998;2023-09-19T03:42:17;14.85;84.12
64997;SHT31;51545;51.568;6.998;2023-09-19T03:44:50;14.71;84.69
64997;SHT31;51545;51.568;6.998;2023-09-19T03:47:17;14.81;84.09
64997;SHT31;51545;51.568;6.998;2023-09-19T03:49:44;14.80;83.50
64997;SHT31;51545;51.568;6.998;2023-09-19T03:52:10;14.74;84.14
64997;SHT31;51545;51.568;6.998;2023-09-19T03:54:35;14.66;84.40
64997;SHT31;51545;51.568;6.998;2023-09-19T03:57:00;14.71;84.16
64997;SHT31;51545;51.568;6.998;2023-09-19T03:59:26;14.71;84.08
64997;SHT31;51545;51.568;6.998;2023-09-19T04:01:53;14.74;84.04
64997;SHT31;51545;51.568;6.998;2023-09-19T04:04:21;14.77;83.65
64997;SHT31;51545;51.568;6.998;2023-09-19T04:06:49;14.71;84.29
64997;SHT31;51545;51.568;6.998;2023-09-19T04:09:15;14.63;84.51
64997;SHT31;51545;51.568;6.998;2023-09-19T04:11:40;14.69;84.29
64997;SHT31;51545;51.568;6.998;2023-09-19T04:14:06;14.70;84.33
64997;SHT31;51545;51.568;6.998;2023-09-19T04:16:31;14.66;84.35
64997;SHT31;51545;51.568;6.998;2023-09-19T04:18:57;14.76;84.06
64997;SHT31;51545;51.568;6.998;2023-09-19T04:21:22;14.71;84.38
64997;SHT31;51545;51.568;6.998;2023-09-19T04:23:48;14.66;84.81
64997;SHT31;51545;51.568;6.998;2023-09-19T04:26:13;14.55;85.17
64997;SHT31;51545;51.568;6.998;2023-09-19T04:28:41;14.70;84.49
64997;SHT31;51545;51.568;6.998;2023-09-19T04:31:06;14.64;85.13
64997;SHT31;51545;51.568;6.998;2023-09-19T04:33:33;14.63;85.00
64997;SHT31;51545;51.568;6.998;2023-09-19T04:36:00;14.59;85.41
64997;SHT31;51545;51.568;6.998;2023-09-19T04:38:25;14.64;85.07
64997;SHT31;51545;51.568;6.998;2023-09-19T04:40:56;14.67;85.00
64997;SHT31;51545;51.568;6.998;2023-09-19T04:43:22;14.67;85.27
64997;SHT31;51545;51.568;6.998;2023-09-19T04:45:49;14.60;85.58
64997;SHT31;51545;51.568;6.998;2023-09-19T04:48:16;14.66;85.61
64997;SHT31;51545;51.568;6.998;2023-09-19T04:50:41;14.60;86.17
64997;SHT31;51545;51.568;6.998;2023-09-19T04:53:07;14.60;85.99
64997;SHT31;51545;51.568;6.998;2023-09-19T04:55:32;14.70;86.02
64997;SHT31;51545;51.568;6.998;2023-09-19T04:57:58;14.63;86.20
64997;SHT31;51545;51.568;6.998;2023-09-19T05:00:23;14.56;86.88
64997;SHT31;51545;51.568;6.998;2023-09-19T05:02:51;14.59;86.62
64997;SHT31;51545;51.568;6.998;2023-09-19T05:05:18;14.60;86.79
64997;SHT31;51545;51.568;6.998;2023-09-19T05:07:44;14.67;86.59
64997;SHT31;51545;51.568;6.998;2023-09-19T05:10:10;14.70;86.50
64997;SHT31;51545;51.568;6.998;2023-09-19T05:12:37;14.69;86.77
64997;SHT31;51545;51.568;6.998;2023-09-19T05:15:03;14.63;86.70
64997;SHT31;51545;51.568;6.998;2023-09-19T05:17:29;14.59;87.22
64997;SHT31;51545;51.568;6.998;2023-09-19T05:19:56;14.64;87.08
64997;SHT31;51545;51.568;6.998;2023-09-19T05:22:22;14.61;86.92
64997;SHT31;51545;51.568;6.998;2023-09-19T05:24:49;14.66;86.92
64997;SHT31;51545;51.568;6.998;2023-09-19T05:27:16;14.60;87.29
64997;SHT31;51545;51.568;6.998;2023-09-19T05:29:42;14.69;87.01
64997;SHT31;51545;51.568;6.998;2023-09-19T05:32:09;14.69;87.10
64997;SHT31;51545;51.568;6.998;2023-09-19T05:34:35;14.70;86.92
64997;SHT31;51545;51.568;6.998;2023-09-19T05:37:01;14.70;87.22
64997;SHT31;51545;51.568;6.998;2023-09-19T05:39:27;14.80;86.92
64997;SHT31;51545;51.568;6.998;2023-09-19T05:41:52;14.81;86.61
64997;SHT31;51545;51.568;6.998;2023-09-19T05:44:18;14.83;86.74
64997;SHT31;51545;51.568;6.998;2023-09-19T05:46:44;14.88;86.72
64997;SHT31;51545;51.568;6.998;2023-09-19T05:49:11;14.91;86.83
64997;SHT31;51545;51.568;6.998;2023-09-19T05:51:36;14.91;86.66
64997;SHT31;51545;51.568;6.998;2023-09-19T05:54:02;14.99;85.68
64997;SHT31;51545;51.568;6.998;2023-09-19T05:56:27;14.98;86.12
64997;SHT31;51545;51.568;6.998;2023-09-19T05:58:53;15.05;86.57
64997;SHT31;51545;51.568;6.998;2023-09-19T06:01:18;15.05;85.71
64997;SHT31;51545;51.568;6.998;2023-09-19T06:03:44;15.11;85.33
64997;SHT31;51545;51.568;6.998;2023-09-19T06:06:09;15.11;85.87
64997;SHT31;51545;51.568;6.998;2023-09-19T06:08:35;15.14;85.37
64997;SHT31;51545;51.568;6.998;2023-09-19T06:11:00;15.15;85.07
64997;SHT31;51545;51.568;6.998;2023-09-19T06:13:29;15.22;84.80
64997;SHT31;51545;51.568;6.998;2023-09-19T06:16:00;15.16;84.93
64997;SHT31;51545;51.568;6.998;2023-09-19T06:18:30;15.19;85.17
64997;SHT31;51545;51.568;6.998;2023-09-19T06:20:59;15.20;84.81
64997;SHT31;51545;51.568;6.998;2023-09-19T06:23:25;15.26;84.70
64997;SHT31;51545;51.568;6.998;2023-09-19T06:25:52;15.25;84.49
64997;SHT31;51545;51.568;6.998;2023-09-19T06:28:18;15.26;84.29
64997;SHT31;51545;51.568;6.998;2023-09-19T06:30:49;15.26;84.68
64997;SHT31;51545;51.568;6.998;2023-09-19T06:33:14;15.32;84.43
64997;SHT31;51545;51.568;6.998;2023-09-19T06:35:40;15.33;84.03
64997;SHT31;51545;51.568;6.998;2023-09-19T06:38:07;15.36;84.33
64997;SHT31;51545;51.568;6.998;2023-09-19T06:40:33;15.35;84.21
64997;SHT31;51545;51.568;6.998;2023-09-19T06:42:59;15.33;83.95
64997;SHT31;51545;51.568;6.998;2023-09-19T06:45:27;15.33;84.26
64997;SHT31;51545;51.568;6.998;2023-09-19T06:47:53;15.36;84.27
64997;SHT31;51545;51.568;6.998;2023-09-19T06:50:20;15.36;84.48
64997;SHT31;51545;51.568;6.998;2023-09-19T06:52:50;15.40;83.86
64997;SHT31;51545;51.568;6.998;2023-09-19T06:55:20;15.40;83.97
64997;SHT31;51545;51.568;6.998;2023-09-19T06:57:49;15.43;84.24
64997;SHT31;51545;51.568;6.998;2023-09-19T07:00:14;15.40;84.20
64997;SHT31;51545;51.568;6.998;2023-09-19T07:02:43;15.46;84.49
64997;SHT31;51545;51.568;6.998;2023-09-19T07:05:10;15.47;84.72
64997;SHT31;51545;51.568;6.998;2023-09-19T07:07:36;15.44;84.15
64997;SHT31;51545;51.568;6.998;2023-09-19T07:10:02;15.53;84.14
64997;SHT31;51545;51.568;6.998;2023-09-19T07:12:30;15.54;83.96
64997;SHT31;51545;51.568;6.998;2023-09-19T07:14:57;15.54;84.57
64997;SHT31;51545;51.568;6.998;2023-09-19T07:17:23;15.63;84.62
64997;SHT31;51545;51.568;6.998;2023-09-19T07:19:49;15.63;84.15
64997;SHT31;51545;51.568;6.998;2023-09-19T07:22:15;15.63;84.11
64997;SHT31;51545;51.568;6.998;2023-09-19T07:24:41;15.60;84.34
64997;SHT31;51545;51.568;6.998;2023-09-19T07:27:06;15.67;84.89
64997;SHT31;51545;51.568;6.998;2023-09-19T07:29:31;15.69;84.62
64997;SHT31;51545;51.568;6.998;2023-09-19T07:31:57;15.69;84.62
64997;SHT31;51545;51.568;6.998;2023-09-19T07:34:22;15.73;84.44
64997;SHT31;51545;51.568;6.998;2023-09-19T07:36:49;15.80;85.06
64997;SHT31;51545;51.568;6.998;2023-09-19T07:39:15;15.80;84.65
64997;SHT31;51545;51.568;6.998;2023-09-19T07:41:43;15.85;84.93
64997;SHT31;51545;51.568;6.998;2023-09-19T07:44:08;15.92;84.59
64997;SHT31;51545;51.568;6.998;2023-09-19T07:46:35;15.87;84.40
64997;SHT31;51545;51.568;6.998;2023-09-19T07:49:01;15.85;84.50
64997;SHT31;51545;51.568;6.998;2023-09-19T07:51:26;15.88;84.26
64997;SHT31;51545;51.568;6.998;2023-09-19T07:53:52;15.97;84.43
64997;SHT31;51545;51.568;6.998;2023-09-19T07:56:18;15.97;84.45
64997;SHT31;51545;51.568;6.998;2023-09-19T07:58:45;15.98;84.36
64997;SHT31;51545;51.568;6.998;2023-09-19T08:01:10;15.97;84.48
64997;SHT31;51545;51.568;6.998;2023-09-19T08:03:39;15.98;84.86
64997;SHT31;51545;51.568;6.998;2023-09-19T08:06:09;16.05;84.24
64997;SHT31;51545;51.568;6.998;2023-09-19T08:08:35;16.02;84.18
64997;SHT31;51545;51.568;6.998;2023-09-19T08:11:02;16.01;84.22
64997;SHT31;51545;51.568;6.998;2023-09-19T08:13:36;16.12;84.18
64997;SHT31;51545;51.568;6.998;2023-09-19T08:16:06;16.14;83.94
64997;SHT31;51545;51.568;6.998;2023-09-19T08:18:31;16.19;84.19
64997;SHT31;51545;51.568;6.998;2023-09-19T08:20:58;16.28;83.95
64997;SHT31;51545;51.568;6.998;2023-09-19T08:23:25;16.28;83.07
64997;SHT31;51545;51.568;6.998;2023-09-19T08:25:55;16.29;84.03
64997;SHT31;51545;51.568;6.998;2023-09-19T08:28:21;16.24;83.25
64997;SHT31;51545;51.568;6.998;2023-09-19T08:30:49;16.35;82.88
64997;SHT31;51545;51.568;6.998;2023-09-19T08:33:16;16.40;83.20
64997;SHT31;51545;51.568;6.998;2023-09-19T08:35:41;16.54;82.98
64997;SHT31;51545;51.568;6.998;2023-09-19T08:38:07;16.78;83.54
64997;SHT31;51545;51.568;6.998;2023-09-19T08:40:36;16.72;81.90
64997;SHT31;51545;51.568;6.998;2023-09-19T08:43:04;17.08;82.48
64997;SHT31;51545;51.568;6.998;2023-09-19T08:45:32;16.88;81.03
64997;SHT31;51545;51.568;6.998;2023-09-19T08:56:25;16.78;81.23
64997;SHT31;51545;51.568;6.998;2023-09-19T08:58:55;16.78;81.64
64997;SHT31;51545;51.568;6.998;2023-09-19T09:01:23;16.91;82.18
64997;SHT31;51545;51.568;6.998;2023-09-19T09:03:53;17.01;81.61
64997;SHT31;51545;51.568;6.998;2023-09-19T09:06:23;17.05;80.67
64997;SHT31;51545;51.568;6.998;2023-09-19T09:08:52;17.04;79.94
64997;SHT31;51545;51.568;6.998;2023-09-19T09:11:18;17.25;80.50
64997;SHT31;51545;51.568;6.998;2023-09-19T09:13:44;17.39;80.12
64997;SHT31;51545;51.568;6.998;2023-09-19T09:16:11;17.70;80.59
64997;SHT31;51545;51.568;6.998;2023-09-19T09:18:37;17.55;78.77
64997;SHT31;51545;51.568;6.998;2023-09-19T09:21:03;17.67;78.59
64997;SHT31;51545;51.568;6.998;2023-09-19T09:23:29;17.50;78.17
64997;SHT31;51545;51.568;6.998;2023-09-19T09:25:55;17.54;77.69
64997;SHT31;51545;51.568;6.998;2023-09-19T09:28:25;17.66;77.98
64997;SHT31;51545;51.568;6.998;2023-09-19T09:30:52;17.55;78.00
64997;SHT31;51545;51.568;6.998;2023-09-19T09:33:18;17.94;78.21
64997;SHT31;51545;51.568;6.998;2023-09-19T09:35:50;18.02;77.66
64997;SHT31;51545;51.568;6.998;2023-09-19T09:38:20;17.91;76.84
64997;SHT31;51545;51.568;6.998;2023-09-19T09:40:50;18.04;76.41
64997;SHT31;51545;51.568;6.998;2023-09-19T09:43:38;17.89;77.46
64997;SHT31;51545;51.568;6.998;2023-09-19T09:46:07;17.50;77.27
64997;SHT31;51545;51.568;6.998;2023-09-19T09:48:59;17.78;77.52
64997;SHT31;51545;51.568;6.998;2023-09-19T09:51:45;17.85;76.30
64997;SHT31;51545;51.568;6.998;2023-09-19T09:54:23;17.54;75.83
64997;SHT31;51545;51.568;6.998;2023-09-19T09:56:56;17.57;76.66
64997;SHT31;51545;51.568;6.998;2023-09-19T09:59:45;17.55;76.98
64997;SHT31;51545;51.568;6.998;2023-09-19T10:02:40;17.58;75.62
64997;SHT31;51545;51.568;6.998;2023-09-19T10:05:13;18.01;74.72
64997;SHT31;51545;51.568;6.998;2023-09-19T10:07:58;17.94;75.96
64997;SHT31;51545;51.568;6.998;2023-09-19T10:10:38;17.74;75.68
64997;SHT31;51545;51.568;6.998;2023-09-19T10:13:08;17.69;76.51
64997;SHT31;51545;51.568;6.998;2023-09-19T10:15:43;17.92;75.42
64997;SHT31;51545;51.568;6.998;2023-09-19T10:18:16;18.26;75.10
64997;SHT31;51545;51.568;6.998;2023-09-19T10:20:45;18.50;75.04
64997;SHT31;51545;51.568;6.998;2023-09-19T10:23:11;18.88;74.98
64997;SHT31;51545;51.568;6.998;2023-09-19T10:25:41;19.03;74.16
64997;SHT31;51545;51.568;6.998;2023-09-19T10:28:08;19.10;72.77
64997;SHT31;51545;51.568;6.998;2023-09-19T10:30:48;19.30;72.31
64997;SHT31;51545;51.568;6.998;2023-09-19T10:33:18;19.02;71.56
64997;SHT31;51545;51.568;6.998;2023-09-19T10:35:51;18.91;72.87
64997;SHT31;51545;51.568;6.998;2023-09-19T10:38:17;18.60;73.73
64997;SHT31;51545;51.568;6.998;2023-09-19T10:40:50;18.59;73.97
64997;SHT31;51545;51.568;6.998;2023-09-19T10:43:18;18.36;73.65
64997;SHT31;51545;51.568;6.998;2023-09-19T10:45:46;18.64;74.24
64997;SHT31;51545;51.568;6.998;2023-09-19T10:48:18;18.70;74.42
64997;SHT31;51545;51.568;6.998;2023-09-19T10:51:12;18.64;73.32
64997;SHT31;51545;51.568;6.998;2023-09-19T10:56:30;19.83;69.80
64997;SHT31;51545;51.568;6.998;2023-09-19T10:59:10;20.04;68.57
64997;SHT31;51545;51.568;6.998;2023-09-19T11:01:56;19.79;69.42
64997;SHT31;51545;51.568;6.998;2023-09-19T11:04:32;19.55;68.73
64997;SHT31;51545;51.568;6.998;2023-09-19T11:07:12;19.88;68.46
64997;SHT31;51545;51.568;6.998;2023-09-19T11:12:11;20.58;66.01
64997;SHT31;51545;51.568;6.998;2023-09-19T11:14:38;20.29;65.50
64997;SHT31;51545;51.568;6.998;2023-09-19T11:30:30;19.32;69.06
64997;SHT31;51545;51.568;6.998;2023-09-19T11:33:15;19.82;69.06
64997;SHT31;51545;51.568;6.998;2023-09-19T11:36:01;20.13;68.05
64997;SHT31;51545;51.568;6.998;2023-09-19T11:43:50;20.08;67.63
64997;SHT31;51545;51.568;6.998;2023-09-19T11:46:24;20.02;67.81
64997;SHT31;51545;51.568;6.998;2023-09-19T11:48:50;20.37;66.53
64997;SHT31;51545;51.568;6.998;2023-09-19T11:51:20;19.95;67.36
64997;SHT31;51545;51.568;6.998;2023-09-19T11:53:53;19.98;67.69
64997;SHT31;51545;51.568;6.998;2023-09-19T11:56:24;20.48;66.63
64997;SHT31;51545;51.568;6.998;2023-09-19T11:58:53;20.87;66.92
64997;SHT31;51545;51.568;6.998;2023-09-19T12:01:33;20.02;67.56
64997;SHT31;51545;51.568;6.998;2023-09-19T12:03:59;20.13;66.96
64997;SHT31;51545;51.568;6.998;2023-09-19T12:06:27;20.01;68.08
64997;SHT31;51545;51.568;6.998;2023-09-19T12:09:01;20.05;68.15
64997;SHT31;51545;51.568;6.998;2023-09-19T12:11:32;20.23;69.25
64997;SHT31;51545;51.568;6.998;2023-09-19T12:13:58;20.20;67.26
64997;SHT31;51545;51.568;6.998;2023-09-19T12:16:26;20.23;66.20
64997;SHT31;51545;51.568;6.998;2023-09-19T12:18:55;20.48;65.28
64997;SHT31;51545;51.568;6.998;2023-09-19T12:21:31;20.26;67.77
64997;SHT31;51545;51.568;6.998;2023-09-19T12:24:04;20.75;65.45
64997;SHT31;51545;51.568;6.998;2023-09-19T12:26:44;19.86;66.24
64997;SHT31;51545;51.568;6.998;2023-09-19T12:31:56;21.05;64.15
64997;SHT31;51545;51.568;6.998;2023-09-19T12:34:32;21.47;62.64
64997;SHT31;51545;51.568;6.998;2023-09-19T12:39:46;21.91;61.14
64997;SHT31;51545;51.568;6.998;2023-09-19T12:42:17;20.85;62.66
64997;SHT31;51545;51.568;6.998;2023-09-19T12:44:49;21.32;62.17
64997;SHT31;51545;51.568;6.998;2023-09-19T12:47:25;20.84;63.38
64997;SHT31;51545;51.568;6.998;2023-09-19T12:52:44;22.47;61.03
64997;SHT31;51545;51.568;6.998;2023-09-19T12:55:47;22.35;59.10
64997;SHT31;51545;51.568;6.998;2023-09-19T12:58:14;21.46;61.03
64997;SHT31;51545;51.568;6.998;2023-09-19T13:00:41;21.20;60.90
64997;SHT31;51545;51.568;6.998;2023-09-19T13:03:11;21.09;61.73
64997;SHT31;51545;51.568;6.998;2023-09-19T13:05:56;21.36;62.06
64997;SHT31;51545;51.568;6.998;2023-09-19T13:08:34;21.51;61.69
64997;SHT31;51545;51.568;6.998;2023-09-19T13:11:10;21.46;62.73
64997;SHT31;51545;51.568;6.998;2023-09-19T13:13:41;21.78;62.13
64997;SHT31;51545;51.568;6.998;2023-09-19T13:16:19;20.75;64.04
64997;SHT31;51545;51.568;6.998;2023-09-19T13:18:49;21.06;63.30
64997;SHT31;51545;51.568;6.998;2023-09-19T13:21:16;21.42;62.19
64997;SHT31;51545;51.568;6.998;2023-09-19T13:23:53;21.16;62.56
64997;SHT31;51545;51.568;6.998;2023-09-19T13:26:24;21.24;63.11
64997;SHT31;51545;51.568;6.998;2023-09-19T13:28:50;22.18;61.74
64997;SHT31;51545;51.568;6.998;2023-09-19T13:31:16;21.77;61.67
64997;SHT31;51545;51.568;6.998;2023-09-19T13:33:44;21.36;61.40
64997;SHT31;51545;51.568;6.998;2023-09-19T13:36:10;21.22;63.45
64997;SHT31;51545;51.568;6.998;2023-09-19T13:38:38;20.82;62.54
64997;SHT31;51545;51.568;6.998;2023-09-19T13:41:04;20.58;63.94
64997;SHT31;51545;51.568;6.998;2023-09-19T13:43:31;21.24;63.38
64997;SHT31;51545;51.568;6.998;2023-09-19T13:45:56;20.87;63.89
64997;SHT31;51545;51.568;6.998;2023-09-19T13:48:22;20.30;64.88
64997;SHT31;51545;51.568;6.998;2023-09-19T13:50:49;20.25;65.36
64997;SHT31;51545;51.568;6.998;2023-09-19T13:53:15;20.13;66.37
64997;SHT31;51545;51.568;6.998;2023-09-19T13:55:42;20.09;65.92
64997;SHT31;51545;51.568;6.998;2023-09-19T13:58:07;20.19;67.34
64997;SHT31;51545;51.568;6.998;2023-09-19T14:00:36;20.41;66.04
64997;SHT31;51545;51.568;6.998;2023-09-19T14:03:03;20.26;66.27
64997;SHT31;51545;51.568;6.998;2023-09-19T14:05:29;20.13;66.63
64997;SHT31;51545;51.568;6.998;2023-09-19T14:07:55;20.23;66.40
64997;SHT31;51545;51.568;6.998;2023-09-19T14:10:24;20.04;65.98
64997;SHT31;51545;51.568;6.998;2023-09-19T14:12:51;19.91;66.53
64997;SHT31;51545;51.568;6.998;2023-09-19T14:15:16;19.82;67.38
64997;SHT31;51545;51.568;6.998;2023-09-19T14:17:42;20.02;67.32
64997;SHT31;51545;51.568;6.998;2023-09-19T14:20:07;19.99;67.27
64997;SHT31;51545;51.568;6.998;2023-09-19T14:22:35;20.10;67.13
64997;SHT31;51545;51.568;6.998;2023-09-19T14:25:01;19.82;67.85
64997;SHT31;51545;51.568;6.998;2023-09-19T14:27:30;19.93;68.38
64997;SHT31;51545;51.568;6.998;2023-09-19T14:29:55;19.95;67.78
64997;SHT31;51545;51.568;6.998;2023-09-19T14:32:22;20.04;67.85
64997;SHT31;51545;51.568;6.998;2023-09-19T14:34:48;19.88;67.89
64997;SHT31;51545;51.568;6.998;2023-09-19T14:37:14;19.89;68.99
64997;SHT31;51545;51.568;6.998;2023-09-19T14:39:41;19.89;68.45
64997;SHT31;51545;51.568;6.998;2023-09-19T14:42:09;19.92;68.26
64997;SHT31;51545;51.568;6.998;2023-09-19T14:44:35;19.93;67.65
64997;SHT31;51545;51.568;6.998;2023-09-19T14:47:02;20.02;67.39
64997;SHT31;51545;51.568;6.998;2023-09-19T14:49:29;19.91;68.75
64997;SHT31;51545;51.568;6.998;2023-09-19T14:51:55;19.86;68.65
64997;SHT31;51545;51.568;6.998;2023-09-19T14:54:20;19.86;69.26
64997;SHT31;51545;51.568;6.998;2023-09-19T14:56:46;19.82;68.09
64997;SHT31;51545;51.568;6.998;2023-09-19T14:59:19;19.77;68.54
64997;SHT31;51545;51.568;6.998;2023-09-19T15:01:45;19.65;68.35
64997;SHT31;51545;51.568;6.998;2023-09-19T15:04:11;19.71;68.39
64997;SHT31;51545;51.568;6.998;2023-09-19T15:06:37;19.82;68.14
64997;SHT31;51545;51.568;6.998;2023-09-19T15:09:04;19.71;68.89
64997;SHT31;51545;51.568;6.998;2023-09-19T15:11:32;19.65;68.93
64997;SHT31;51545;51.568;6.998;2023-09-19T15:13:59;19.67;69.01
64997;SHT31;51545;51.568;6.998;2023-09-19T15:16:25;19.64;69.25
64997;SHT31;51545;51.568;6.998;2023-09-19T15:18:50;19.61;69.92
64997;SHT31;51545;51.568;6.998;2023-09-19T15:21:17;19.55;69.23
64997;SHT31;51545;51.568;6.998;2023-09-19T15:23:44;19.60;69.19
64997;SHT31;51545;51.568;6.998;2023-09-19T15:26:11;19.63;69.05
64997;SHT31;51545;51.568;6.998;2023-09-19T15:28:39;19.64;68.84
64997;SHT31;51545;51.568;6.998;2023-09-19T15:31:06;19.63;68.96
64997;SHT31;51545;51.568;6.998;2023-09-19T15:33:34;19.61;69.26
64997;SHT31;51545;51.568;6.998;2023-09-19T15:36:09;19.71;69.05
64997;SHT31;51545;51.568;6.998;2023-09-19T15:41:17;19.92;68.63
64997;SHT31;51545;51.568;6.998;2023-09-19T15:43:42;20.05;68.25
64997;SHT31;51545;51.568;6.998;2023-09-19T15:46:08;20.05;68.29
64997;SHT31;51545;51.568;6.998;2023-09-19T15:48:33;20.04;68.35
64997;SHT31;51545;51.568;6.998;2023-09-19T15:51:02;20.02;68.37
64997;SHT31;51545;51.568;6.998;2023-09-19T15:53:31;19.82;69.19
64997;SHT31;51545;51.568;6.998;2023-09-19T15:56:07;19.60;69.17
64997;SHT31;51545;51.568;6.998;2023-09-19T15:58:33;19.64;69.42
64997;SHT31;51545;51.568;6.998;2023-09-19T16:01:04;19.60;69.56
64997;SHT31;51545;51.568;6.998;2023-09-19T16:03:33;19.61;69.54
64997;SHT31;51545;51.568;6.998;2023-09-19T16:06:01;19.63;69.69
64997;SHT31;51545;51.568;6.998;2023-09-19T16:08:32;19.57;69.47
64997;SHT31;51545;51.568;6.998;2023-09-19T16:10:59;19.60;70.09
64997;SHT31;51545;51.568;6.998;2023-09-19T16:13:24;19.57;70.03
64997;SHT31;51545;51.568;6.998;2023-09-19T16:15:50;19.46;69.90
64997;SHT31;51545;51.568;6.998;2023-09-19T16:18:16;19.36;70.76
64997;SHT31;51545;51.568;6.998;2023-09-19T16:20:41;19.42;70.64
64997;SHT31;51545;51.568;6.998;2023-09-19T16:23:07;19.40;70.53
64997;SHT31;51545;51.568;6.998;2023-09-19T16:25:32;19.36;70.65
64997;SHT31;51545;51.568;6.998;2023-09-19T16:27:58;19.40;70.47
64997;SHT31;51545;51.568;6.998;2023-09-19T16:30:23;19.49;70.83
64997;SHT31;51545;51.568;6.998;2023-09-19T16:32:48;19.42;71.43
64997;SHT31;51545;51.568;6.998;2023-09-19T16:35:14;19.39;70.37
64997;SHT31;51545;51.568;6.998;2023-09-19T16:37:40;19.30;70.97